GAO weather

South Lafourche Leonard Miller Jr Airport
Galliano, Louisiana, United States

Public forecast

Using degrees Fahrenheit for public forecast. Weather courtesy of forecast.io.

Current aviation weather report (METAR) for South Lafourche Leonard Miller Jr Airport

Retrieved 2019/11/13 19:35 UTC (0 seconds ago):

KGAO 131935Z AUTO 04006KT 010V100 10SM CLR 07/00 A3023 RMK AO2 T00700002

Closest aviation forecast (TAF) to South Lafourche Leonard Miller Jr Airport

Closest forecast is Houma Terrebonne Airport, 22.1 nm (40.9 km) WNW. Retrieved 2019/11/13 18:22 UTC (42 minutes ago):

TAF KHUM 131720Z 1318/1418 05005KT P6SM SCT200 BKN250 FM141200 01007KT P6SM VCSH OVC025 FM141600 01007KT 6SM BR VCSH OVC070